createdAt,value
2022-07-27T00:01:51.318Z,17.30
2022-07-27T00:04:19.928Z,17.30
2022-07-27T00:06:48.043Z,17.30
2022-07-27T00:09:15.273Z,17.30
2022-07-27T00:11:42.334Z,17.30
2022-07-27T00:14:09.091Z,17.30
2022-07-27T00:16:35.979Z,17.30
2022-07-27T00:19:02.910Z,17.30
2022-07-27T00:21:29.738Z,17.30
2022-07-27T00:23:56.569Z,17.30
2022-07-27T00:26:23.318Z,17.30
2022-07-27T00:28:50.421Z,17.20
2022-07-27T00:31:18.031Z,17.20
2022-07-27T00:33:45.103Z,17.20
2022-07-27T00:36:12.493Z,17.20
2022-07-27T00:38:39.358Z,17.20
2022-07-27T00:41:06.181Z,17.20
2022-07-27T00:43:33.896Z,17.10
2022-07-27T00:46:04.753Z,17.10
2022-07-27T00:48:32.181Z,17.10
2022-07-27T00:50:59.520Z,17.00
2022-07-27T00:53:26.534Z,17.10
2022-07-27T00:55:53.317Z,17.00
2022-07-27T00:58:20.036Z,17.10
2022-07-27T01:00:46.916Z,17.00
2022-07-27T01:03:16.326Z,17.10
2022-07-27T01:05:43.943Z,17.00
2022-07-27T01:08:13.693Z,17.00
2022-07-27T01:10:42.145Z,17.00
2022-07-27T01:13:12.617Z,17.00
2022-07-27T01:15:40.847Z,16.90
2022-07-27T01:18:29.653Z,16.90
2022-07-27T01:20:57.215Z,16.90
2022-07-27T01:23:24.978Z,16.90
2022-07-27T01:25:51.878Z,16.80
2022-07-27T01:28:18.683Z,16.80
2022-07-27T01:30:45.461Z,16.80
2022-07-27T01:33:12.264Z,16.80
2022-07-27T01:35:39.822Z,16.70
2022-07-27T01:38:09.828Z,16.70
2022-07-27T01:40:37.825Z,16.70
2022-07-27T01:43:05.410Z,16.70
2022-07-27T01:45:32.405Z,16.70
2022-07-27T01:47:59.212Z,16.70
2022-07-27T01:50:25.947Z,16.70
2022-07-27T01:52:52.720Z,16.70
2022-07-27T01:55:19.679Z,16.70
2022-07-27T01:57:46.456Z,16.70
2022-07-27T02:00:13.712Z,16.60
2022-07-27T02:02:40.809Z,16.60
2022-07-27T02:05:11.934Z,16.50
2022-07-27T02:07:40.386Z,16.50
2022-07-27T02:10:07.859Z,16.60
2022-07-27T02:12:37.607Z,16.60
2022-07-27T02:15:14.799Z,16.60
2022-07-27T02:17:43.770Z,16.60
2022-07-27T02:20:12.819Z,16.50
2022-07-27T02:22:39.564Z,16.50
2022-07-27T02:25:07.327Z,16.50
2022-07-27T02:27:34.155Z,16.40
2022-07-27T02:30:01.334Z,16.30
2022-07-27T02:32:28.211Z,16.30
2022-07-27T02:34:55.034Z,16.30
2022-07-27T02:37:21.879Z,16.30
2022-07-27T02:39:48.971Z,16.30
2022-07-27T02:42:15.697Z,16.30
2022-07-27T02:44:42.433Z,16.20
2022-07-27T02:47:09.193Z,16.20
2022-07-27T02:49:36.014Z,16.20
2022-07-27T02:52:03.289Z,16.20
2022-07-27T02:54:32.440Z,16.10
2022-07-27T02:57:02.621Z,16.10
2022-07-27T02:59:29.522Z,16.10
2022-07-27T03:01:56.413Z,16.00
2022-07-27T03:04:23.591Z,16.00
2022-07-27T03:06:50.358Z,16.00
2022-07-27T03:09:17.109Z,16.00
2022-07-27T03:11:43.881Z,15.90
2022-07-27T03:14:10.698Z,16.00
2022-07-27T03:16:37.409Z,16.00
2022-07-27T03:19:04.729Z,15.90
2022-07-27T03:21:31.635Z,15.80
2022-07-27T03:23:58.413Z,15.80
2022-07-27T03:26:25.277Z,15.80
2022-07-27T03:28:52.022Z,15.70
2022-07-27T03:31:18.828Z,15.80
2022-07-27T03:33:45.608Z,15.70
2022-07-27T03:36:12.354Z,15.70
2022-07-27T03:38:39.110Z,15.60
2022-07-27T03:41:06.855Z,15.60
2022-07-27T03:43:34.903Z,15.60
2022-07-27T03:46:01.726Z,15.50
2022-07-27T03:48:29.308Z,15.50
2022-07-27T03:50:56.101Z,15.40
2022-07-27T03:53:23.095Z,15.40
2022-07-27T03:55:50.925Z,15.40
2022-07-27T03:58:18.084Z,15.30
2022-07-27T04:00:45.486Z,15.30
2022-07-27T04:03:12.298Z,15.30
2022-07-27T04:05:39.072Z,15.20
2022-07-27T04:08:06.109Z,15.20
2022-07-27T04:10:33.059Z,15.10
2022-07-27T04:12:59.904Z,15.10
2022-07-27T04:15:26.938Z,15.10
2022-07-27T04:17:57.030Z,15.10
2022-07-27T04:20:25.122Z,15.00
2022-07-27T04:22:51.972Z,15.00
2022-07-27T04:25:18.817Z,15.00
2022-07-27T04:27:45.713Z,15.00
2022-07-27T04:30:12.878Z,14.90
2022-07-27T04:32:40.067Z,14.90
2022-07-27T04:35:08.320Z,14.80
2022-07-27T04:37:35.354Z,14.80
2022-07-27T04:40:02.312Z,14.80
2022-07-27T04:42:30.027Z,14.80
2022-07-27T04:44:57.355Z,14.70
2022-07-27T04:47:24.161Z,14.70
2022-07-27T04:49:51.042Z,14.70
2022-07-27T04:52:18.475Z,14.70
2022-07-27T04:54:45.656Z,14.70
2022-07-27T04:57:12.527Z,14.70
2022-07-27T04:59:39.234Z,14.70
2022-07-27T05:02:05.972Z,14.70
2022-07-27T05:04:32.753Z,14.70
2022-07-27T05:06:59.634Z,14.70
2022-07-27T05:09:26.356Z,14.80
2022-07-27T05:11:53.163Z,14.80
2022-07-27T05:14:21.622Z,14.90
2022-07-27T05:16:49.458Z,14.90
2022-07-27T05:19:16.349Z,15.00
2022-07-27T05:21:43.365Z,15.00
2022-07-27T05:24:10.359Z,15.00
2022-07-27T05:26:38.047Z,15.10
2022-07-27T05:29:04.862Z,15.10
2022-07-27T05:31:31.618Z,15.20
2022-07-27T05:33:58.817Z,15.20
2022-07-27T05:36:26.144Z,15.30
2022-07-27T05:38:52.986Z,15.40
2022-07-27T05:41:24.704Z,15.40
2022-07-27T05:43:52.464Z,15.50
2022-07-27T05:46:19.315Z,15.50
2022-07-27T05:48:46.184Z,15.50
2022-07-27T05:51:12.996Z,15.50
2022-07-27T05:53:39.710Z,15.50
2022-07-27T05:56:08.078Z,15.60
2022-07-27T05:58:35.016Z,15.60
2022-07-27T06:01:02.202Z,15.60
2022-07-27T06:03:28.977Z,15.60
2022-07-27T06:06:15.745Z,15.60
2022-07-27T06:08:42.495Z,15.60
2022-07-27T06:11:09.308Z,15.60
2022-07-27T06:13:36.729Z,15.70
2022-07-27T06:16:04.053Z,15.60
2022-07-27T06:18:30.819Z,15.70
2022-07-27T06:20:57.896Z,15.70
2022-07-27T06:23:24.700Z,15.70
2022-07-27T06:25:51.437Z,15.70
2022-07-27T06:28:19.193Z,15.80
2022-07-27T06:30:47.051Z,15.80
2022-07-27T06:33:14.552Z,15.90
2022-07-27T06:35:41.657Z,15.90
2022-07-27T06:38:09.146Z,15.90
2022-07-27T06:40:36.084Z,16.00
2022-07-27T06:43:02.972Z,16.10
2022-07-27T06:45:29.727Z,16.00
2022-07-27T06:47:56.428Z,16.10
2022-07-27T06:50:23.383Z,16.10
2022-07-27T06:52:50.410Z,16.20
2022-07-27T06:55:17.703Z,16.20
2022-07-27T06:57:46.162Z,16.20
2022-07-27T07:00:13.493Z,16.20
2022-07-27T07:02:51.827Z,16.30
2022-07-27T07:05:18.618Z,16.40
2022-07-27T07:07:45.322Z,16.50
2022-07-27T07:10:13.275Z,16.60
2022-07-27T07:12:39.939Z,16.60
2022-07-27T07:15:07.940Z,16.70
2022-07-27T07:17:34.608Z,16.80
2022-07-27T07:20:01.767Z,16.80
2022-07-27T07:22:28.456Z,16.80
2022-07-27T07:24:59.330Z,16.90
2022-07-27T07:27:29.179Z,17.00
2022-07-27T07:29:56.076Z,17.10
2022-07-27T07:32:27.735Z,17.20
2022-07-27T07:34:56.193Z,17.40
2022-07-27T07:37:22.864Z,17.50
2022-07-27T07:40:08.243Z,17.60
2022-07-27T07:42:49.834Z,17.70
2022-07-27T07:45:16.602Z,17.70
2022-07-27T07:47:43.347Z,17.80
2022-07-27T07:50:10.333Z,17.90
2022-07-27T07:52:37.355Z,18.00
2022-07-27T07:55:04.803Z,18.10
2022-07-27T07:57:31.457Z,18.10
2022-07-27T07:59:58.189Z,18.10
2022-07-27T08:02:24.908Z,18.10
2022-07-27T08:04:54.298Z,18.10
2022-07-27T08:07:20.990Z,18.00
2022-07-27T08:09:47.645Z,18.10
2022-07-27T08:12:14.406Z,18.10
2022-07-27T08:14:41.093Z,18.10
2022-07-27T08:17:07.799Z,18.10
2022-07-27T08:19:39.899Z,18.10
2022-07-27T08:22:07.005Z,18.10
2022-07-27T08:24:33.757Z,18.20
2022-07-27T08:27:01.036Z,18.20
2022-07-27T08:29:34.182Z,18.20
2022-07-27T08:32:03.928Z,18.40
2022-07-27T08:34:33.105Z,18.40
2022-07-27T08:36:59.795Z,18.30
2022-07-27T08:40:27.852Z,18.40
2022-07-27T08:42:13.114Z,18.50
2022-07-27T08:44:41.171Z,18.40
2022-07-27T08:47:11.076Z,18.40
2022-07-27T08:49:43.602Z,18.50
2022-07-27T08:52:12.370Z,18.60
2022-07-27T08:54:41.257Z,18.80
2022-07-27T08:57:11.335Z,19.10
2022-07-27T08:59:38.246Z,19.30
2022-07-27T09:02:10.620Z,19.40
2022-07-27T09:04:40.449Z,19.50
2022-07-27T09:07:07.178Z,19.50
2022-07-27T09:09:45.874Z,19.60
2022-07-27T09:12:12.742Z,19.60
2022-07-27T09:14:41.523Z,19.70
2022-07-27T09:17:47.903Z,19.70
2022-07-27T09:20:19.037Z,19.70
2022-07-27T09:22:52.345Z,20.00
2022-07-27T09:25:44.845Z,20.20
2022-07-27T09:28:10.106Z,20.20
2022-07-27T09:30:43.510Z,20.30
2022-07-27T09:33:10.570Z,20.40
2022-07-27T09:35:37.828Z,20.40
2022-07-27T09:38:21.246Z,20.50
2022-07-27T09:40:57.913Z,20.60
2022-07-27T09:44:28.608Z,20.70
2022-07-27T09:46:12.106Z,20.70
2022-07-27T09:48:39.139Z,20.70
2022-07-27T09:51:55.823Z,20.70
2022-07-27T09:53:58.824Z,20.60
2022-07-27T09:56:30.826Z,20.90
2022-07-27T09:59:01.466Z,21.20
2022-07-27T10:01:32.998Z,21.40
2022-07-27T10:04:00.754Z,21.40
2022-07-27T10:06:28.961Z,21.60
2022-07-27T10:08:57.402Z,21.70
2022-07-27T10:11:24.993Z,21.60
2022-07-27T10:13:53.491Z,21.60
2022-07-27T10:16:26.055Z,21.70
2022-07-27T10:19:07.997Z,21.60
2022-07-27T10:21:38.242Z,21.70
2022-07-27T10:24:12.435Z,21.80
2022-07-27T10:26:41.528Z,22.10
2022-07-27T10:29:14.188Z,22.20
2022-07-27T10:31:58.003Z,22.50
2022-07-27T10:34:42.372Z,22.60
2022-07-27T10:37:15.956Z,22.60
2022-07-27T10:39:50.990Z,22.80
2022-07-27T10:42:22.001Z,23.10
2022-07-27T10:45:08.222Z,23.20
2022-07-27T10:47:40.908Z,23.30
2022-07-27T10:50:16.730Z,23.70
2022-07-27T10:52:47.495Z,24.10
2022-07-27T10:55:32.590Z,24.30
2022-07-27T10:58:22.156Z,24.50
2022-07-27T11:00:58.312Z,24.40
2022-07-27T11:03:32.994Z,24.20
2022-07-27T11:11:49.927Z,23.80
2022-07-27T11:14:19.343Z,23.70
2022-07-27T11:17:12.408Z,23.60
2022-07-27T11:19:45.010Z,23.40
2022-07-27T11:22:28.259Z,23.60
2022-07-27T11:24:55.644Z,23.80
2022-07-27T11:27:25.376Z,23.80
2022-07-27T11:29:52.259Z,23.90
2022-07-27T11:32:20.331Z,23.80
2022-07-27T11:34:47.571Z,23.70
2022-07-27T11:37:19.508Z,23.80
2022-07-27T11:40:04.132Z,24.00
2022-07-27T11:42:45.999Z,24.00
2022-07-27T11:45:13.266Z,24.00
2022-07-27T11:47:39.991Z,24.00
2022-07-27T11:50:08.460Z,24.20
2022-07-27T11:52:42.516Z,24.40
2022-07-27T11:55:09.432Z,24.50
2022-07-27T11:57:40.288Z,24.60
2022-07-27T12:00:07.836Z,24.70
2022-07-27T12:02:34.577Z,25.00
2022-07-27T12:05:03.203Z,25.00
2022-07-27T12:07:32.115Z,25.30
2022-07-27T12:10:02.027Z,25.40
2022-07-27T12:12:31.505Z,25.50
2022-07-27T12:15:11.782Z,25.60
2022-07-27T12:17:56.978Z,25.70
2022-07-27T12:20:32.843Z,25.50
2022-07-27T12:23:07.798Z,25.40
2022-07-27T12:25:35.278Z,25.30
2022-07-27T12:28:15.117Z,25.40
2022-07-27T12:30:45.056Z,25.50
2022-07-27T12:33:36.948Z,25.40
2022-07-27T12:36:06.181Z,25.20
2022-07-27T12:38:44.672Z,25.30
2022-07-27T12:41:23.076Z,25.60
2022-07-27T12:44:06.065Z,25.60
2022-07-27T12:46:32.870Z,25.40
2022-07-27T12:48:59.739Z,25.40
2022-07-27T12:51:26.787Z,25.60
2022-07-27T12:53:53.620Z,25.80
2022-07-27T12:56:26.856Z,25.70
2022-07-27T12:58:58.964Z,25.80
2022-07-27T13:01:25.632Z,25.60
2022-07-27T13:03:52.378Z,25.50
2022-07-27T13:06:19.157Z,25.60
2022-07-27T13:08:45.927Z,25.80
2022-07-27T13:11:13.821Z,25.80
2022-07-27T13:13:40.746Z,25.80
2022-07-27T13:16:07.645Z,25.70
2022-07-27T13:18:34.398Z,26.00
2022-07-27T13:21:01.579Z,26.00
2022-07-27T13:23:29.469Z,26.00
2022-07-27T13:25:56.210Z,26.20
2022-07-27T13:28:23.020Z,26.30
2022-07-27T13:30:49.798Z,26.40
2022-07-27T13:33:16.509Z,26.20
2022-07-27T13:35:43.236Z,26.10
2022-07-27T13:38:14.490Z,26.10
2022-07-27T13:40:44.985Z,25.90
2022-07-27T13:43:12.251Z,25.80
2022-07-27T13:45:43.341Z,25.80
2022-07-27T13:48:11.861Z,25.60
2022-07-27T13:50:39.839Z,26.00
2022-07-27T13:53:06.538Z,26.40
2022-07-27T13:55:34.413Z,26.80
2022-07-27T13:58:01.123Z,27.10
2022-07-27T14:00:28.003Z,27.40
2022-07-27T14:02:54.803Z,27.50
2022-07-27T14:05:21.538Z,27.60
2022-07-27T14:07:48.466Z,27.30
2022-07-27T14:10:39.552Z,26.90
2022-07-27T14:13:09.414Z,26.60
2022-07-27T14:15:54.432Z,26.30
2022-07-27T14:18:27.469Z,26.20
2022-07-27T14:20:59.211Z,26.00
2022-07-27T14:23:26.969Z,25.80
2022-07-27T14:25:55.059Z,25.80
2022-07-27T14:28:22.580Z,25.50
2022-07-27T14:30:49.434Z,25.60
2022-07-27T14:33:16.453Z,26.00
2022-07-27T14:35:43.500Z,26.20
2022-07-27T14:38:11.271Z,26.40
2022-07-27T14:40:39.069Z,26.70
2022-07-27T14:43:06.589Z,26.80
2022-07-27T14:45:44.922Z,27.10
2022-07-27T14:48:25.102Z,27.40
2022-07-27T14:50:59.745Z,27.60
2022-07-27T14:53:26.485Z,28.00
2022-07-27T14:55:53.278Z,28.10
2022-07-27T14:58:20.033Z,28.10
2022-07-27T15:00:46.927Z,27.60
2022-07-27T15:03:14.831Z,27.30
2022-07-27T15:05:49.606Z,27.30
2022-07-27T15:08:21.024Z,27.30
2022-07-27T15:10:48.586Z,27.40
2022-07-27T15:13:15.963Z,27.10
2022-07-27T15:15:42.875Z,27.00
2022-07-27T15:18:09.922Z,26.90
2022-07-27T15:20:36.665Z,26.80
2022-07-27T15:23:04.037Z,26.80
2022-07-27T15:25:30.820Z,26.70
2022-07-27T15:27:57.606Z,26.50
2022-07-27T15:30:24.400Z,26.10
2022-07-27T15:32:51.114Z,26.00
2022-07-27T15:35:17.831Z,26.10
2022-07-27T15:37:53.187Z,26.40
2022-07-27T15:40:37.139Z,26.70
2022-07-27T15:43:11.046Z,26.90
2022-07-27T15:45:45.661Z,27.10
2022-07-27T15:48:13.548Z,27.10
2022-07-27T15:50:42.531Z,27.20
2022-07-27T15:53:09.931Z,27.20
2022-07-27T15:55:37.571Z,27.30
2022-07-27T15:58:06.084Z,27.30
2022-07-27T16:00:38.670Z,27.30
2022-07-27T16:03:06.580Z,27.00
2022-07-27T16:05:37.507Z,26.90
2022-07-27T16:08:05.347Z,26.80
2022-07-27T16:10:32.173Z,26.50
2022-07-27T16:13:00.656Z,26.40
2022-07-27T16:15:46.285Z,26.20
2022-07-27T16:18:13.094Z,26.00
2022-07-27T16:20:39.895Z,26.00
2022-07-27T16:23:19.071Z,26.00
2022-07-27T16:26:10.286Z,26.00
2022-07-27T16:28:40.099Z,25.90
2022-07-27T16:31:08.725Z,26.00
2022-07-27T16:33:35.733Z,25.90
2022-07-27T16:36:02.711Z,25.60
2022-07-27T16:38:29.496Z,25.50
2022-07-27T16:40:56.207Z,25.40
2022-07-27T16:43:23.126Z,25.40
2022-07-27T16:46:04.814Z,25.50
2022-07-27T16:48:38.316Z,25.50
2022-07-27T16:51:11.869Z,25.50
2022-07-27T16:53:40.448Z,25.30
2022-07-27T16:56:07.243Z,25.00
2022-07-27T16:58:34.318Z,25.20
2022-07-27T17:01:01.411Z,25.30
2022-07-27T17:03:28.177Z,25.40
2022-07-27T17:05:54.936Z,25.50
2022-07-27T17:08:27.788Z,25.60
2022-07-27T17:10:55.439Z,25.80
2022-07-27T17:13:22.157Z,25.90
2022-07-27T17:16:00.763Z,26.00
2022-07-27T17:18:27.922Z,26.10
2022-07-27T17:20:54.670Z,26.20
2022-07-27T17:23:21.428Z,26.20
2022-07-27T17:25:48.257Z,26.30
2022-07-27T17:28:15.090Z,26.40
2022-07-27T17:30:41.827Z,26.40
2022-07-27T17:33:08.570Z,26.40
2022-07-27T17:35:35.341Z,26.40
2022-07-27T17:38:06.918Z,26.40
2022-07-27T17:40:34.815Z,26.30
2022-07-27T17:43:01.913Z,26.20
2022-07-27T17:45:28.797Z,26.00
2022-07-27T17:47:55.467Z,26.00
2022-07-27T17:50:22.557Z,26.10
2022-07-27T17:52:49.488Z,26.10
2022-07-27T17:55:16.252Z,26.20
2022-07-27T17:57:44.835Z,26.20
2022-07-27T18:00:12.059Z,26.20
2022-07-27T18:02:38.731Z,26.20
2022-07-27T18:05:05.975Z,26.10
2022-07-27T18:07:39.279Z,26.00
2022-07-27T18:10:08.344Z,26.00
2022-07-27T18:12:35.702Z,25.90
2022-07-27T18:15:21.649Z,25.80
2022-07-27T18:17:48.367Z,25.70
2022-07-27T18:20:15.075Z,25.60
2022-07-27T18:22:42.491Z,25.60
2022-07-27T18:25:09.688Z,25.50
2022-07-27T18:27:37.152Z,25.40
2022-07-27T18:30:05.905Z,25.30
2022-07-27T18:32:33.448Z,25.10
2022-07-27T18:35:01.483Z,24.90
2022-07-27T18:37:28.305Z,24.70
2022-07-27T18:39:55.021Z,24.60
2022-07-27T18:42:21.881Z,24.40
2022-07-27T18:44:48.554Z,24.30
2022-07-27T18:47:15.321Z,24.30
2022-07-27T18:49:42.149Z,24.20
2022-07-27T18:52:09.000Z,24.20
2022-07-27T18:54:35.803Z,24.20
2022-07-27T18:57:02.567Z,24.10
2022-07-27T18:59:30.055Z,24.00
2022-07-27T19:01:56.974Z,23.90
2022-07-27T19:04:24.661Z,23.80
2022-07-27T19:06:52.653Z,23.70
2022-07-27T19:09:19.395Z,23.60
2022-07-27T19:11:46.180Z,23.50
2022-07-27T19:14:12.990Z,23.30
2022-07-27T19:16:39.943Z,23.20
2022-07-27T19:19:11.620Z,23.10
2022-07-27T19:21:41.226Z,23.00
2022-07-27T19:24:08.068Z,22.80
2022-07-27T19:26:34.953Z,22.70
2022-07-27T19:29:01.669Z,22.60
2022-07-27T19:31:28.459Z,22.50
2022-07-27T19:33:56.073Z,22.40
2022-07-27T19:36:23.211Z,22.20
2022-07-27T19:38:50.813Z,22.10
2022-07-27T19:41:17.873Z,22.00
2022-07-27T19:43:44.814Z,21.90
2022-07-27T19:46:11.743Z,21.80
2022-07-27T19:48:38.862Z,21.70
2022-07-27T19:51:07.213Z,21.60
2022-07-27T19:53:35.573Z,21.50
2022-07-27T19:56:02.727Z,21.50
2022-07-27T19:58:29.683Z,21.30
2022-07-27T20:00:56.577Z,21.20
2022-07-27T20:03:23.857Z,21.10
2022-07-27T20:05:51.070Z,21.00
2022-07-27T20:08:17.952Z,20.90
2022-07-27T20:10:44.771Z,20.80
2022-07-27T20:13:14.377Z,20.70
2022-07-27T20:15:41.094Z,20.60
2022-07-27T20:18:08.089Z,20.50
2022-07-27T20:20:35.202Z,20.40
2022-07-27T20:23:01.954Z,20.30
2022-07-27T20:25:28.619Z,20.30
2022-07-27T20:27:55.342Z,20.20
2022-07-27T20:30:22.212Z,20.10
2022-07-27T20:32:49.909Z,20.00
2022-07-27T20:35:17.140Z,19.90
2022-07-27T20:37:45.343Z,19.80
2022-07-27T20:40:12.742Z,19.80
2022-07-27T20:42:41.456Z,19.70
2022-07-27T20:45:10.165Z,19.60
2022-07-27T20:47:38.317Z,19.50
2022-07-27T20:50:11.368Z,19.40
2022-07-27T20:52:38.979Z,19.40
2022-07-27T20:55:07.368Z,19.30
2022-07-27T20:57:34.473Z,19.20
2022-07-27T21:00:01.692Z,19.10
2022-07-27T21:02:28.420Z,19.00
2022-07-27T21:04:55.226Z,18.90
2022-07-27T21:07:21.935Z,18.80
2022-07-27T21:09:48.868Z,18.70
2022-07-27T21:12:15.745Z,18.60
2022-07-27T21:14:43.071Z,18.60
2022-07-27T21:17:09.752Z,18.50
2022-07-27T21:19:36.656Z,18.40
2022-07-27T21:22:03.357Z,18.40
2022-07-27T21:24:30.233Z,18.30
2022-07-27T21:27:00.929Z,18.20
2022-07-27T21:29:31.801Z,18.10
2022-07-27T21:31:58.796Z,18.00
2022-07-27T21:34:25.607Z,17.90
2022-07-27T21:36:52.307Z,17.80
2022-07-27T21:39:19.980Z,17.70
2022-07-27T21:41:46.834Z,17.60
2022-07-27T21:44:13.830Z,17.60
2022-07-27T21:46:41.007Z,17.50
2022-07-27T21:49:08.058Z,17.40
2022-07-27T21:51:34.953Z,17.30
2022-07-27T21:54:01.916Z,17.20
2022-07-27T21:56:28.752Z,17.10
2022-07-27T21:58:55.627Z,17.00
2022-07-27T22:01:22.595Z,16.90
2022-07-27T22:03:49.431Z,16.80
2022-07-27T22:06:16.837Z,16.70
2022-07-27T22:08:44.096Z,16.60
2022-07-27T22:11:10.774Z,16.50
2022-07-27T22:13:37.551Z,16.50
2022-07-27T22:16:04.947Z,16.40
2022-07-27T22:18:32.057Z,16.30
2022-07-27T22:20:58.918Z,16.30
2022-07-27T22:23:25.891Z,16.20
2022-07-27T22:25:52.615Z,16.10
2022-07-27T22:28:19.305Z,16.10
2022-07-27T22:31:17.451Z,16.00
2022-07-27T22:33:37.069Z,15.90
2022-07-27T22:36:06.710Z,15.90
2022-07-27T22:38:33.723Z,15.80
2022-07-27T22:41:00.414Z,15.70
2022-07-27T22:43:27.115Z,15.70
2022-07-27T22:45:53.868Z,15.60
2022-07-27T22:48:20.696Z,15.60
2022-07-27T22:50:47.860Z,15.50
2022-07-27T22:53:15.821Z,15.50
2022-07-27T22:55:42.518Z,15.40
2022-07-27T22:58:09.313Z,15.30
2022-07-27T23:00:36.059Z,15.30
2022-07-27T23:03:02.824Z,15.20
2022-07-27T23:05:29.859Z,15.10
2022-07-27T23:07:56.609Z,15.10
2022-07-27T23:10:41.858Z,15.00
2022-07-27T23:13:08.673Z,14.90
2022-07-27T23:15:37.360Z,14.80
2022-07-27T23:18:04.703Z,14.80
2022-07-27T23:20:31.603Z,14.70
2022-07-27T23:22:58.506Z,14.70
2022-07-27T23:25:35.169Z,14.60
2022-07-27T23:28:03.741Z,14.50
2022-07-27T23:30:30.441Z,14.50
2022-07-27T23:32:57.204Z,14.40
2022-07-27T23:35:24.337Z,14.40
2022-07-27T23:37:51.057Z,14.30
2022-07-27T23:40:18.465Z,14.30
2022-07-27T23:42:45.182Z,14.20
2022-07-27T23:45:12.487Z,14.20
2022-07-27T23:47:39.784Z,14.10
2022-07-27T23:50:07.586Z,14.00
2022-07-27T23:52:34.355Z,14.00
2022-07-27T23:55:01.770Z,13.90
2022-07-27T23:57:28.819Z,13.90
2022-07-27T23:59:55.523Z,13.90
